Time;durP1;ratioP1;P1;durP2;ratioP2;P2;SDS_P1;SDS_P2;PMS_P1;PMS_P2;Temp;Humidity;BMP_temperature;BMP_pressure;BME280_temperature;BME280_humidity;BME280_pressure;Samples;Min_cycle;Max_cycle;Signal;HPM_P1;HPM_P2
2022/08/13 00:01:06;;;;;;;13.95;9.38;;;;;;;31.38;70.89;97510.47;4958759;28;20088;-66
2022/08/13 00:04:02;;;;;;;15.52;10.25;;;;;;;31.36;70.64;97508.09;4977856;28;20047;-67
2022/08/13 00:09:47;;;;;;;14.48;9.68;;;;;;;31.30;71.00;97512.38;4979067;28;20125;-67
2022/08/13 00:15:48;;;;;;;14.88;9.38;;;;;;;31.33;70.81;97517.16;4976308;28;20161;-66
2022/08/13 00:18:38;;;;;;;14.18;9.18;;;;;;;31.31;71.15;97513.97;4975094;28;20050;-67
2022/08/13 00:21:28;;;;;;;11.70;9.20;;;;;;;31.26;71.15;97511.56;4975474;28;21177;-66
2022/08/13 00:24:38;;;;;;;13.65;9.40;;;;;;;31.35;70.54;97525.88;4964241;28;20129;-67
2022/08/13 00:27:34;;;;;;;15.65;8.95;;;;;;;31.37;70.66;97522.72;4959333;28;20109;-68
2022/08/13 00:30:44;;;;;;;14.73;8.55;;;;;;;31.30;70.77;97517.09;4969157;28;20125;-66
2022/08/13 00:33:30;;;;;;;15.73;9.52;;;;;;;31.34;70.57;97515.97;4952372;28;20061;-68
2022/08/13 00:36:31;;;;;;;19.92;8.00;;;;;;;31.34;70.34;97513.22;4960223;28;20045;-68
2022/08/13 00:39:22;;;;;;;12.38;7.93;;;;;;;31.33;70.60;97517.16;4971972;28;20047;-68
2022/08/13 00:42:07;;;;;;;13.55;7.97;;;;;;;31.46;70.12;97514.94;4971115;28;20209;-70
2022/08/13 00:45:00;;;;;;;10.13;7.35;;;;;;;31.49;70.17;97525.28;4960072;28;20438;-68
2022/08/13 00:51:09;;;;;;;14.48;7.60;;;;;;;31.27;70.74;97540.84;4968461;28;20062;-68
2022/08/13 00:53:51;;;;;;;13.75;7.72;;;;;;;31.46;69.83;97542.66;4965667;28;20043;-69
2022/08/13 00:56:52;;;;;;;12.18;7.10;;;;;;;31.50;69.88;97551.00;4961182;28;20348;-68
2022/08/13 00:59:34;;;;;;;12.88;7.03;;;;;;;31.51;69.51;97547.06;4971123;28;20050;-69
2022/08/13 01:02:25;;;;;;;13.95;6.68;;;;;;;31.57;69.93;97545.53;4975328;28;20054;-69
2022/08/13 01:05:14;;;;;;;10.65;6.97;;;;;;;31.61;69.65;97549.13;4978190;28;20596;-67
2022/08/13 01:07:57;;;;;;;12.70;6.13;;;;;;;31.62;69.11;97547.94;4977599;28;20395;-70
2022/08/13 01:10:56;;;;;;;12.48;6.80;;;;;;;31.67;68.85;97549.59;4975465;28;20042;-67
2022/08/13 01:13:33;;;;;;;11.30;6.13;;;;;;;31.60;68.99;97556.66;4976741;28;20524;-67
2022/08/13 01:16:26;;;;;;;9.80;6.30;;;;;;;31.54;69.60;97554.63;4976536;28;20054;-68
2022/08/13 01:19:15;;;;;;;10.77;6.18;;;;;;;31.72;68.69;97560.31;4974865;28;20050;-68
2022/08/13 01:22:19;;;;;;;9.07;6.15;;;;;;;31.76;68.77;97556.41;4976481;28;20055;-69
2022/08/13 01:25:14;;;;;;;10.00;5.60;;;;;;;31.68;68.52;97559.50;4975432;28;20050;-69
2022/08/13 01:27:59;;;;;;;9.25;5.57;;;;;;;31.85;68.28;97558.06;4979619;28;20050;-68
2022/08/13 01:30:53;;;;;;;11.60;6.18;;;;;;;31.71;68.65;97567.06;4958064;28;20049;-68
2022/08/13 01:33:36;;;;;;;10.15;5.80;;;;;;;31.86;68.07;97570.75;4980666;28;20573;-68
2022/08/13 01:36:34;;;;;;;7.88;5.10;;;;;;;31.87;68.15;97564.00;4977086;28;20774;-68
2022/08/13 01:39:37;;;;;;;9.88;5.00;;;;;;;31.86;68.18;97571.56;4978256;28;20073;-67
2022/08/13 01:42:29;;;;;;;8.57;5.05;;;;;;;31.71;68.32;97580.94;4975878;28;20059;-69
2022/08/13 01:45:18;;;;;;;6.90;4.88;;;;;;;31.87;68.23;97577.88;4977644;28;20050;-68
2022/08/13 01:51:18;;;;;;;6.47;4.60;;;;;;;32.05;67.60;97578.88;4972332;28;20149;-68
2022/08/13 01:54:17;;;;;;;7.65;4.30;;;;;;;32.10;67.38;97580.47;4974846;28;20055;-69
2022/08/13 01:57:12;;;;;;;8.85;4.97;;;;;;;32.15;66.43;97572.59;4973401;28;20050;-70
2022/08/13 02:00:13;;;;;;;8.02;4.03;;;;;;;32.22;65.80;97565.50;4958003;28;20814;-68
2022/08/13 02:03:09;;;;;;;8.90;3.90;;;;;;;32.30;65.25;97578.25;4977044;28;20057;-69
2022/08/13 02:05:52;;;;;;;5.68;3.88;;;;;;;32.41;64.68;97569.97;4977473;28;20057;-68
2022/08/13 02:09:04;;;;;;;6.00;4.05;;;;;;;32.47;64.30;97572.03;4971814;28;20051;-68
2022/08/13 02:12:16;;;;;;;6.47;4.35;;;;;;;32.51;63.43;97572.81;4975915;28;20733;-68
2022/08/13 02:15:25;;;;;;;5.68;4.07;;;;;;;32.56;63.32;97575.28;4963698;28;20043;-68
2022/08/13 02:18:32;;;;;;;10.15;3.90;;;;;;;32.66;63.19;97578.50;4970049;28;20050;-69
2022/08/13 02:21:07;;;;;;;6.30;3.90;;;;;;;32.90;62.92;97579.78;4976431;28;20440;-67
2022/08/13 02:24:08;;;;;;;7.50;4.10;;;;;;;33.81;60.31;97573.34;4976071;28;20050;-69
2022/08/13 02:26:44;;;;;;;8.90;4.13;;;;;;;35.32;55.59;97578.63;4974481;28;20055;-68
2022/08/13 02:29:35;;;;;;;6.60;4.05;;;;;;;36.27;52.88;97578.34;4967506;28;20042;-68
2022/08/13 02:32:25;;;;;;;7.65;4.20;;;;;;;36.66;52.39;97579.97;4966517;28;20054;-68
2022/08/13 02:35:09;;;;;;;9.77;4.72;;;;;;;37.54;49.49;97570.84;4946974;29;20035;-68
2022/08/13 02:38:03;;;;;;;9.77;4.00;;;;;;;37.80;48.64;97565.72;4966729;28;20050;-67
2022/08/13 02:43:56;;;;;;;8.07;4.13;;;;;;;38.10;47.71;97572.44;4967013;28;20047;-66
2022/08/13 02:46:39;;;;;;;;;;;;;;;38.27;47.99;97571.31;4967404;28;20100;-67
2022/08/13 02:49:28;;;;;;;11.68;3.92;;;;;;;37.96;48.55;97573.44;4967124;28;20433;-66
2022/08/13 02:52:28;;;;;;;4.90;3.45;;;;;;;37.33;49.36;97562.78;4946574;29;20059;-67
2022/08/13 02:55:30;;;;;;;5.97;3.80;;;;;;;36.06;52.29;97563.34;4947631;29;20110;-67
2022/08/13 02:58:22;;;;;;;6.22;3.38;;;;;;;36.04;52.89;97568.56;4940433;29;20051;-66
2022/08/13 03:01:06;;;;;;;6.28;3.22;;;;;;;35.03;54.83;97567.56;4948402;29;20071;-68
2022/08/13 03:03:55;;;;;;;5.18;2.78;;;;;;;35.55;53.61;97573.28;4947681;29;20051;-67
2022/08/13 03:06:45;;;;;;;6.65;3.72;;;;;;;35.37;54.39;97559.47;4965714;28;20557;-68
2022/08/13 03:09:34;;;;;;;9.25;3.75;;;;;;;35.52;54.62;97557.34;4985608;28;20054;-67
2022/08/13 03:12:28;;;;;;;11.02;3.40;;;;;;;34.93;55.28;97552.50;4981274;28;20074;-66
2022/08/13 03:15:13;;;;;;;6.25;2.88;;;;;;;35.03;55.38;97556.44;4987197;28;20625;-67
2022/08/13 03:18:02;;;;;;;7.88;3.00;;;;;;;34.78;55.35;97559.28;4988188;28;20046;-68
2022/08/13 03:20:44;;;;;;;6.40;3.25;;;;;;;34.70;55.92;97548.19;4987217;28;20042;-66
2022/08/13 03:23:33;;;;;;;5.50;3.35;;;;;;;34.49;56.42;97554.59;4986043;28;20046;-68
2022/08/13 03:26:24;;;;;;;7.45;3.28;;;;;;;34.61;56.00;97547.00;4971341;28;20058;-67
2022/08/13 03:29:17;;;;;;;5.10;3.30;;;;;;;35.30;53.95;97542.75;4982549;28;20065;-68
2022/08/13 03:32:01;;;;;;;12.02;3.35;;;;;;;35.39;53.56;97545.06;4990640;28;20054;-67
2022/08/13 03:34:53;;;;;;;6.70;4.43;;;;;;;35.39;54.25;97550.66;4974413;28;20474;-67
2022/08/13 03:37:35;;;;;;;4.78;3.30;;;;;;;35.53;55.19;97547.00;4973981;28;20526;-67
2022/08/13 03:41:00;;;;;;;8.30;3.58;;;;;;;35.85;53.54;97546.78;4970612;28;20598;-69
2022/08/13 03:43:31;;;;;;;15.48;3.53;;;;;;;35.87;53.52;97545.16;4969908;28;20137;-67
2022/08/13 03:46:34;;;;;;;7.57;3.58;;;;;;;36.34;53.09;97536.34;4951205;29;20118;-67
2022/08/13 03:49:24;;;;;;;5.65;3.72;;;;;;;35.95;52.77;97542.31;4955468;28;20435;-68
2022/08/13 03:52:13;;;;;;;8.98;3.70;;;;;;;35.37;54.83;97536.31;4969009;28;20442;-67
2022/08/13 03:55:23;;;;;;;8.10;3.53;;;;;;;35.94;53.48;97535.91;4962383;28;20058;-67
2022/08/13 03:58:01;;;;;;;7.03;3.00;;;;;;;35.85;53.86;97541.97;4971029;28;20490;-68
2022/08/13 04:01:01;;;;;;;5.30;3.70;;;;;;;35.64;54.72;97540.13;4951579;29;20058;-67
2022/08/13 04:03:40;;;;;;;6.25;3.70;;;;;;;35.71;54.45;97544.88;4965465;28;20043;-68
2022/08/13 04:06:29;;;;;;;7.25;3.00;;;;;;;35.84;54.25;97542.41;4967396;28;20054;-67
2022/08/13 04:09:12;;;;;;;5.22;3.10;;;;;;;35.80;53.54;97544.44;4968998;28;20063;-68
2022/08/13 04:12:10;;;;;;;6.35;3.58;;;;;;;36.09;52.54;97535.78;4970149;28;20066;-69
2022/08/13 04:15:00;;;;;;;4.95;3.25;;;;;;;36.61;51.59;97538.47;4966856;28;20411;-70
2022/08/13 04:17:50;;;;;;;7.47;3.58;;;;;;;37.06;50.57;97535.53;4930868;29;20056;-67
2022/08/13 04:20:34;;;;;;;8.05;4.20;;;;;;;36.81;50.70;97530.28;4922854;29;20047;-67
2022/08/13 04:23:23;;;;;;;5.75;3.45;;;;;;;37.12;51.66;97527.47;4930769;29;20162;-67
2022/08/13 04:26:05;;;;;;;7.63;3.78;;;;;;;37.43;49.54;97522.63;4938218;29;20566;-67
2022/08/13 04:29:14;;;;;;;10.38;3.78;;;;;;;37.12;50.57;97522.66;4932566;29;20054;-66
2022/08/13 04:31:52;;;;;;;6.95;3.63;;;;;;;37.52;49.92;97525.69;4944813;29;20055;-67
2022/08/13 04:34:41;;;;;;;5.55;3.25;;;;;;;38.04;48.79;97518.88;4950138;28;20062;-67
2022/08/13 04:37:28;;;;;;;8.60;3.95;;;;;;;38.32;47.51;97511.19;4956552;28;20051;-67
2022/08/13 04:40:39;;;;;;;6.13;3.60;;;;;;;38.42;48.12;97510.19;4969252;28;20129;-67
2022/08/13 04:43:35;;;;;;;4.47;2.85;;;;;;;38.41;46.26;97519.03;4968759;28;20058;-67
2022/08/13 04:46:25;;;;;;;6.03;2.60;;;;;;;38.90;45.51;97508.81;4968611;28;20146;-67
2022/08/13 04:49:12;;;;;;;4.30;2.70;;;;;;;38.97;46.01;97511.50;4961086;28;20051;-67
2022/08/13 04:52:11;;;;;;;5.45;2.75;;;;;;;39.26;45.62;97510.88;4935973;29;20048;-67
2022/08/13 04:54:47;;;;;;;6.88;3.45;;;;;;;38.94;44.22;97505.94;4930265;29;20051;-68
2022/08/13 04:57:38;;;;;;;5.20;3.13;;;;;;;39.28;45.73;97507.63;4934176;28;20471;-67
2022/08/13 05:00:38;;;;;;;7.22;3.17;;;;;;;39.57;42.99;97509.78;4930526;29;20503;-68
2022/08/13 05:03:32;;;;;;;7.40;2.70;;;;;;;39.43;43.35;97511.69;4929581;29;20139;-68
2022/08/13 05:06:24;;;;;;;5.88;2.50;;;;;;;39.59;43.52;97510.94;4946692;29;20062;-68
2022/08/13 05:09:16;;;;;;;5.65;2.92;;;;;;;38.57;44.88;97500.31;4950762;28;20047;-68
2022/08/13 05:12:18;;;;;;;4.20;2.63;;;;;;;39.73;42.63;97501.38;4930230;29;20126;-67
2022/08/13 05:15:13;;;;;;;8.95;2.40;;;;;;;39.19;42.43;97493.41;4930858;29;20051;-68
2022/08/13 05:18:24;;;;;;;4.18;2.30;;;;;;;39.41;41.17;97494.50;4940234;29;20496;-69
2022/08/13 05:21:11;;;;;;;2.28;1.65;;;;;;;38.94;39.61;97489.94;4944834;29;20146;-67
2022/08/13 05:24:01;;;;;;;2.67;1.60;;;;;;;39.24;40.02;97487.28;4950769;28;20138;-70
2022/08/13 05:27:13;;;;;;;5.03;2.05;;;;;;;38.45;41.60;97488.94;4948724;29;20054;-70
2022/08/13 05:29:57;;;;;;;3.33;1.65;;;;;;;38.90;41.24;97477.19;4948881;29;20122;-69
2022/08/13 05:33:06;;;;;;;2.10;1.77;;;;;;;39.08;41.33;97480.44;4949047;29;20074;-71
2022/08/13 05:35:57;;;;;;;2.67;1.80;;;;;;;39.24;41.53;97476.84;4949059;29;20046;-70
2022/08/13 05:39:06;;;;;;;4.47;2.00;;;;;;;39.45;40.48;97477.59;4953679;29;20043;-70
2022/08/13 05:41:48;;;;;;;;;;;;;;;39.07;42.09;97476.03;4952933;29;20055;-70
2022/08/13 05:44:49;;;;;;;3.55;1.88;;;;;;;39.51;42.68;97475.84;4950137;29;19934;-70
2022/08/13 05:47:40;;;;;;;4.03;1.80;;;;;;;39.37;41.57;97470.56;4956149;28;20066;-71
2022/08/13 05:50:31;;;;;;;4.45;1.65;;;;;;;39.44;41.58;97474.00;4967150;28;20054;-72
2022/08/13 05:53:15;;;;;;;3.22;1.73;;;;;;;39.16;40.18;97462.19;4954535;28;20059;-73
2022/08/13 05:56:06;;;;;;;10.23;2.13;;;;;;;39.78;42.18;97461.50;4948885;29;20142;-69
2022/08/13 05:58:58;;;;;;;4.50;2.10;;;;;;;39.50;38.73;97468.66;4948849;29;20483;-70
2022/08/13 06:05:15;;;;;;;3.70;1.58;;;;;;;39.33;38.63;97473.44;4931845;29;20051;-70
2022/08/13 06:08:27;;;;;;;3.95;1.88;;;;;;;39.03;39.94;97472.50;4943182;28;20051;-69
2022/08/13 06:11:30;;;;;;;4.43;1.45;;;;;;;38.35;40.59;97471.91;4958644;28;20069;-72
2022/08/13 06:14:40;;;;;;;5.63;2.08;;;;;;;38.55;38.55;97459.91;4955739;28;20054;-68
2022/08/13 06:17:35;;;;;;;11.40;1.88;;;;;;;37.87;40.48;97459.16;4967576;28;20046;-69
2022/08/13 06:20:24;;;;;;;4.95;1.98;;;;;;;37.89;40.94;97459.53;4967282;28;20133;-70
2022/08/13 06:23:14;;;;;;;7.03;1.92;;;;;;;38.35;40.45;97463.50;4966955;28;20074;-71
2022/08/13 06:26:06;;;;;;;2.90;2.28;;;;;;;38.30;39.22;97469.59;4961244;28;20377;-70
2022/08/13 06:29:01;;;;;;;5.03;1.90;;;;;;;38.18;45.25;97457.00;4979711;28;20042;-64
2022/08/13 06:31:51;;;;;;;5.53;1.70;;;;;;;38.45;45.92;97458.88;4978047;28;20046;-69
2022/08/13 06:34:41;;;;;;;4.38;1.60;;;;;;;38.13;43.92;97459.53;4966585;28;20058;-70
2022/08/13 06:37:29;;;;;;;4.15;1.75;;;;;;;38.43;48.05;97458.53;4980679;28;20066;-69
2022/08/13 06:40:22;;;;;;;5.68;2.00;;;;;;;37.94;43.79;97455.44;4986738;28;20069;-72
2022/08/13 06:43:17;;;;;;;3.45;2.00;;;;;;;38.14;43.78;97452.69;4986571;28;20125;-71
2022/08/13 06:46:05;;;;;;;3.95;1.75;;;;;;;38.33;45.83;97453.91;4970890;28;20140;-71
2022/08/13 06:49:15;;;;;;;5.43;1.80;;;;;;;37.55;45.60;97457.69;4956004;28;20073;-70
2022/08/13 06:51:50;;;;;;;4.65;1.60;;;;;;;37.96;43.58;97448.19;4966352;28;20589;-72
2022/08/13 06:54:40;;;;;;;3.38;1.60;;;;;;;38.13;42.25;97442.72;4969312;28;20050;-69
2022/08/13 06:57:31;;;;;;;3.22;1.40;;;;;;;37.78;42.43;97442.13;4985332;28;20057;-72
2022/08/13 07:00:33;;;;;;;2.22;1.00;;;;;;;37.68;41.61;97445.91;4984157;28;20055;-70
2022/08/13 07:03:23;;;;;;;4.00;2.08;;;;;;;38.33;42.07;97448.31;4975167;28;20055;-71
2022/08/13 07:06:22;;;;;;;2.67;1.30;;;;;;;38.28;44.10;97448.84;4982672;28;20054;-70
2022/08/13 07:09:11;;;;;;;4.95;1.50;;;;;;;38.52;42.88;97447.53;4971497;28;20050;-72
2022/08/13 07:12:00;;;;;;;7.65;1.48;;;;;;;38.93;42.62;97442.69;4985242;28;20054;-71
2022/08/13 07:14:50;;;;;;;2.00;1.58;;;;;;;38.45;44.04;97436.47;4972475;28;20514;-70
2022/08/13 07:17:39;;;;;;;3.42;1.50;;;;;;;38.33;44.26;97435.13;4964314;28;20051;-70
2022/08/13 07:20:36;;;;;;;4.05;1.88;;;;;;;38.52;42.72;97429.91;4969076;28;20154;-72
2022/08/13 07:23:19;;;;;;;6.40;1.90;;;;;;;38.45;45.17;97424.47;4965384;28;20096;-70
2022/08/13 07:26:30;;;;;;;4.10;1.25;;;;;;;38.80;43.63;97430.56;4967305;28;20059;-70
2022/08/13 07:29:23;;;;;;;2.30;1.40;;;;;;;38.92;45.93;97432.66;4967005;28;20058;-72
2022/08/13 07:32:22;;;;;;;3.40;1.58;;;;;;;39.33;41.74;97420.13;4966630;28;20051;-73
2022/08/13 07:35:16;;;;;;;2.65;1.38;;;;;;;38.90;43.25;97429.50;4966013;28;20050;-74
2022/08/13 07:38:25;;;;;;;11.48;1.70;;;;;;;39.06;43.73;97426.78;4933272;29;20167;-75
2022/08/13 07:41:11;;;;;;;4.20;1.60;;;;;;;38.88;43.85;97423.53;4973817;28;20058;-73
2022/08/13 07:44:02;;;;;;;2.95;1.80;;;;;;;38.93;44.76;97423.03;4977613;28;20529;-71
2022/08/13 07:46:45;;;;;;;7.93;1.48;;;;;;;39.04;41.96;97426.41;4964838;28;20105;-72
2022/08/13 07:49:47;;;;;;;2.88;1.75;;;;;;;38.52;41.70;97413.09;4964807;28;20157;-73
2022/08/13 07:52:22;;;;;;;4.72;1.60;;;;;;;38.35;43.11;97413.06;4975814;28;20053;-72
2022/08/13 07:55:12;;;;;;;3.13;2.03;;;;;;;38.81;42.98;97406.88;4970047;28;20157;-75
2022/08/13 07:58:27;;;;;;;3.33;1.77;;;;;;;39.09;43.13;97420.25;4975165;28;20276;-73
2022/08/13 08:01:12;;;;;;;1.90;1.48;;;;;;;38.82;40.87;97411.28;4969908;28;20096;-73
2022/08/13 08:04:11;;;;;;;4.63;1.75;;;;;;;39.02;44.71;97417.66;4962996;28;20163;-71
2022/08/13 08:07:12;;;;;;;4.90;1.80;;;;;;;39.12;42.03;97408.19;4965477;28;20134;-68
2022/08/13 08:09:55;;;;;;;5.55;2.40;;;;;;;38.85;43.05;97411.19;4964622;28;20055;-71
2022/08/13 08:12:53;;;;;;;4.97;2.08;;;;;;;38.39;43.88;97405.34;4971323;28;20105;-70
2022/08/13 08:15:45;;;;;;;8.15;3.35;;;;;;;37.96;45.25;97406.16;4970884;28;20830;-69
2022/08/13 08:18:45;;;;;;;8.35;3.65;;;;;;;37.30;46.80;97404.13;4949683;29;20074;-67
2022/08/13 08:21:58;;;;;;;6.65;3.92;;;;;;;37.89;46.71;97403.53;4948220;29;20122;-71
2022/08/13 08:25:10;;;;;;;8.43;4.97;;;;;;;37.80;47.75;97392.88;4988745;28;20101;-70
2022/08/13 08:28:01;;;;;;;7.22;4.10;;;;;;;38.36;47.19;97397.78;4989183;28;20069;-72
2022/08/13 08:31:11;;;;;;;10.57;3.83;;;;;;;38.56;47.68;97391.41;4987249;28;20082;-70
2022/08/13 08:34:18;;;;;;;4.55;4.03;;;;;;;38.02;46.44;97394.47;4950078;29;20131;-71
2022/08/13 08:37:09;;;;;;;7.47;3.72;;;;;;;37.97;46.78;97390.97;4961326;28;20502;-71
2022/08/13 08:43:13;;;;;;;7.40;3.77;;;;;;;38.62;47.71;97388.88;4971684;28;20054;-70
2022/08/13 08:46:05;;;;;;;6.82;4.57;;;;;;;37.79;48.13;97387.72;4969591;28;20047;-70
2022/08/13 08:48:54;;;;;;;8.98;5.10;;;;;;;37.97;47.42;97381.78;4968470;28;20047;-71
2022/08/13 08:51:59;;;;;;;10.88;4.65;;;;;;;37.86;48.47;97379.19;4968506;28;20055;-71
2022/08/13 08:54:42;;;;;;;7.68;4.35;;;;;;;37.72;48.51;97379.44;4954398;28;20470;-71
2022/08/13 08:57:33;;;;;;;8.82;4.32;;;;;;;37.47;48.43;97379.88;4968231;28;20054;-70
2022/08/13 09:00:31;;;;;;;11.80;4.97;;;;;;;37.36;48.90;97377.28;4953000;28;20050;-73
2022/08/13 09:03:10;;;;;;;6.75;4.57;;;;;;;37.42;48.66;97372.75;4968190;28;20055;-72
2022/08/13 09:06:08;;;;;;;8.13;5.07;;;;;;;37.07;50.18;97369.31;4949834;28;20605;-69
2022/08/13 09:08:55;;;;;;;9.23;4.70;;;;;;;37.21;51.01;97362.72;4968037;28;20054;-72
2022/08/13 09:11:52;;;;;;;7.53;4.80;;;;;;;36.87;50.42;97363.63;4971668;28;20489;-72
2022/08/13 09:14:48;;;;;;;9.20;4.75;;;;;;;37.10;50.38;97365.66;4946101;29;20051;-72
2022/08/13 09:17:38;;;;;;;7.50;5.43;;;;;;;36.51;50.82;97354.94;4946866;28;20046;-70
2022/08/13 09:20:35;;;;;;;6.22;5.20;;;;;;;36.91;50.04;97349.59;4605165;29;10000260;-68
2022/08/13 09:23:26;;;;;;;9.55;5.65;;;;;;;37.30;50.88;97354.56;4261977;29;10000734;-72
2022/08/13 09:26:29;;;;;;;11.02;5.45;;;;;;;37.15;46.75;97348.44;4948126;28;20055;-71
2022/08/13 09:29:22;;;;;;;7.20;5.72;;;;;;;37.22;48.21;97344.72;4956440;28;20454;-73
2022/08/13 09:32:05;;;;;;;7.45;6.13;;;;;;;37.02;50.04;97356.59;4956302;28;20070;-69
2022/08/13 09:35:19;;;;;;;9.80;6.40;;;;;;;37.30;52.87;97337.78;4955704;28;20125;-67
2022/08/13 09:37:56;;;;;;;10.40;6.70;;;;;;;37.13;51.19;97339.69;4952676;28;20043;-68
2022/08/13 09:40:48;;;;;;;8.68;5.97;;;;;;;37.01;46.50;97343.84;4954181;28;20070;-68
2022/08/13 09:43:49;;;;;;;8.88;5.50;;;;;;;36.62;43.21;97339.59;4953737;28;20382;-72
2022/08/13 09:46:38;;;;;;;10.23;6.30;;;;;;;36.23;49.79;97338.16;4951477;28;20047;-72
2022/08/13 09:49:33;;;;;;;7.10;6.25;;;;;;;35.97;50.05;97331.28;4951463;28;20141;-69
2022/08/13 09:52:35;;;;;;;10.35;6.47;;;;;;;35.68;50.50;97333.59;4954645;28;20055;-68
2022/08/13 09:55:28;;;;;;;8.50;6.45;;;;;;;35.38;53.29;97326.69;4954715;28;20051;-72
2022/08/13 09:58:33;;;;;;;8.55;6.07;;;;;;;35.35;50.55;97321.16;4954883;28;20047;-69
2022/08/13 10:01:24;;;;;;;8.88;7.00;;;;;;;35.18;53.04;97331.28;4954824;28;20066;-68
2022/08/13 10:04:42;;;;;;;8.05;7.18;;;;;;;35.29;51.67;97324.41;4955132;28;20050;-69
2022/08/13 10:07:20;;;;;;;10.02;6.65;;;;;;;35.42;50.50;97321.09;4959630;28;20149;-72
2022/08/13 10:10:11;;;;;;;9.45;6.40;;;;;;;35.24;48.17;97321.28;4961347;28;20058;-70
2022/08/13 10:13:12;;;;;;;8.73;6.55;;;;;;;35.04;49.52;97321.78;4961020;28;20313;-70
2022/08/13 10:16:01;;;;;;;9.05;7.03;;;;;;;34.98;51.59;97315.09;4976624;28;20058;-69
2022/08/13 10:18:51;;;;;;;11.23;6.53;;;;;;;34.96;49.03;97320.28;4956467;28;20056;-72
2022/08/13 10:21:42;;;;;;;8.38;6.65;;;;;;;34.87;53.18;97315.19;4978324;28;20066;-70
2022/08/13 10:24:25;;;;;;;7.72;6.45;;;;;;;35.13;50.26;97310.19;4977526;28;20050;-69
2022/08/13 10:27:29;;;;;;;14.70;7.32;;;;;;;35.15;50.19;97307.78;4970101;28;20055;-70
2022/08/13 10:30:42;;;;;;;10.13;7.07;;;;;;;35.16;54.06;97303.78;4974856;28;20124;-70
2022/08/13 10:33:36;;;;;;;11.00;6.07;;;;;;;35.35;53.67;97299.66;4953202;28;20501;-70
2022/08/13 10:36:28;;;;;;;13.35;7.50;;;;;;;35.38;51.32;97303.59;4959738;28;20093;-69
2022/08/13 10:39:17;;;;;;;7.15;6.43;;;;;;;35.38;50.59;97298.03;4972899;28;20148;-69
2022/08/13 10:42:00;;;;;;;9.55;7.03;;;;;;;35.16;54.89;97298.22;4975020;28;20589;-70
2022/08/13 10:44:52;;;;;;;8.75;6.60;;;;;;;35.16;53.04;97289.03;4973778;28;20057;-71
2022/08/13 10:47:45;;;;;;;8.73;6.97;;;;;;;35.26;53.21;97291.75;4971256;28;20069;-70
2022/08/13 10:50:41;;;;;;;11.15;7.45;;;;;;;35.55;55.12;97288.66;4970423;28;20112;-71
2022/08/13 10:56:38;;;;;;;12.48;7.72;;;;;;;35.86;54.88;97274.78;4969187;28;20046;-70
2022/08/13 10:59:33;;;;;;;8.30;7.10;;;;;;;35.91;54.43;97288.28;4973868;28;20097;-70
2022/08/13 11:02:22;;;;;;;12.35;7.90;;;;;;;36.23;54.69;97285.09;4972121;28;20054;-70
2022/08/13 11:05:10;;;;;;;8.50;7.18;;;;;;;36.40;56.39;97288.84;4969108;28;20466;-70
2022/08/13 11:08:00;;;;;;;11.00;6.50;;;;;;;36.26;55.10;97283.44;4974024;28;20078;-70
2022/08/13 11:10:43;;;;;;;8.10;6.80;;;;;;;36.13;53.97;97285.19;4949052;28;20137;-70
2022/08/13 11:13:59;;;;;;;7.30;6.28;;;;;;;36.16;55.35;97273.97;4971402;28;20074;-70
2022/08/13 11:16:57;;;;;;;8.90;6.90;;;;;;;36.44;54.71;97277.63;4970663;28;20050;-71
2022/08/13 11:19:56;;;;;;;8.13;6.43;;;;;;;36.33;54.36;97277.78;4970303;28;20130;-71
2022/08/13 11:22:52;;;;;;;13.43;7.15;;;;;;;36.23;54.14;97276.72;4973953;28;20057;-71
2022/08/13 11:25:42;;;;;;;8.13;6.15;;;;;;;36.37;53.88;97278.50;4969429;28;20112;-71
2022/08/13 11:28:51;;;;;;;11.90;6.05;;;;;;;36.19;54.35;97275.16;4973367;28;20047;-71
2022/08/13 11:31:33;;;;;;;12.18;5.85;;;;;;;36.56;53.61;97273.44;4964800;28;20043;-71
2022/08/13 11:34:40;;;;;;;10.02;5.90;;;;;;;36.60;53.26;97280.53;4973214;28;20038;-71
2022/08/13 11:37:22;;;;;;;12.07;6.28;;;;;;;36.37;53.60;97277.72;4973729;28;20054;-71
2022/08/13 11:40:21;;;;;;;13.57;6.50;;;;;;;36.51;53.61;97273.91;4969342;28;20062;-70
2022/08/13 11:43:14;;;;;;;12.52;6.00;;;;;;;36.42;52.03;97272.44;4973385;28;20046;-70
2022/08/13 11:46:03;;;;;;;8.93;6.93;;;;;;;36.40;52.71;97272.09;4975093;28;20481;-71
2022/08/13 11:48:45;;;;;;;12.60;6.22;;;;;;;36.58;51.95;97265.44;4974763;28;20046;-71
2022/08/13 11:51:54;;;;;;;9.38;6.13;;;;;;;36.58;51.79;97265.44;4974149;28;20109;-70
2022/08/13 11:54:36;;;;;;;10.15;5.93;;;;;;;36.66;52.11;97266.91;4977310;28;20500;-71
2022/08/13 11:57:25;;;;;;;7.65;5.68;;;;;;;36.44;50.79;97261.63;4974515;28;20047;-70
2022/08/13 12:00:26;;;;;;;10.70;5.97;;;;;;;36.17;51.69;97263.63;4975896;28;20050;-70
2022/08/13 12:03:15;;;;;;;8.88;5.93;;;;;;;36.41;52.14;97261.69;4976051;28;20344;-70
2022/08/13 12:06:03;;;;;;;6.30;5.43;;;;;;;36.26;50.97;97256.31;4977199;28;20057;-70
2022/08/13 12:08:54;;;;;;;14.00;6.88;;;;;;;36.37;52.26;97261.75;4974870;28;20070;-70
2022/08/13 12:11:56;;;;;;;9.82;5.50;;;;;;;36.35;52.18;97261.38;4979043;28;20136;-71
2022/08/13 12:14:58;;;;;;;8.05;5.32;;;;;;;36.56;51.55;97263.06;4971171;28;20598;-71
2022/08/13 12:17:55;;;;;;;8.10;5.72;;;;;;;36.67;52.06;97260.13;4957684;28;20118;-73
2022/08/13 12:20:30;;;;;;;9.15;5.60;;;;;;;36.48;52.95;97260.78;4974031;28;20576;-71
2022/08/13 12:23:22;;;;;;;6.95;5.20;;;;;;;36.29;52.39;97265.03;4974375;28;20054;-70
2022/08/13 12:26:15;;;;;;;6.68;4.97;;;;;;;36.01;53.72;97261.44;4630071;28;10000173;-70
2022/08/13 12:29:04;;;;;;;5.35;4.82;;;;;;;36.11;52.64;97273.66;4974571;28;20560;-73
2022/08/13 12:31:46;;;;;;;8.48;4.85;;;;;;;35.76;53.15;97279.28;4966313;28;20064;-75
2022/08/13 12:34:37;;;;;;;6.40;5.15;;;;;;;35.74;54.51;97264.19;4978617;28;20374;-71
2022/08/13 12:37:23;;;;;;;10.35;4.63;;;;;;;35.67;54.99;97274.19;4972096;28;20057;-74
2022/08/13 12:40:32;;;;;;;7.85;4.80;;;;;;;35.30;56.73;97277.78;4972690;28;20058;-71
2022/08/13 12:43:08;;;;;;;6.10;4.50;;;;;;;35.11;57.25;97279.13;4949308;29;20125;-73
2022/08/13 12:46:13;;;;;;;6.13;4.40;;;;;;;35.63;56.26;97287.38;4949778;29;20054;-73
2022/08/13 12:49:21;;;;;;;6.28;4.32;;;;;;;35.73;56.29;97284.91;4950233;29;20047;-70
2022/08/13 12:51:56;;;;;;;6.85;4.13;;;;;;;35.70;56.07;97285.75;4950829;29;20142;-72
2022/08/13 12:54:49;;;;;;;10.52;5.88;;;;;;;35.28;55.88;97286.56;4958183;28;20046;-71
2022/08/13 12:57:51;;;;;;;5.75;4.18;;;;;;;35.39;54.12;97300.41;4969439;28;20051;-70
2022/08/13 13:00:47;;;;;;;5.95;4.05;;;;;;;35.29;55.88;97296.53;4970414;28;20050;-69
2022/08/13 13:03:36;;;;;;;8.07;4.57;;;;;;;34.98;54.16;97295.56;4961113;28;20059;-69
2022/08/13 13:06:40;;;;;;;7.28;4.43;;;;;;;35.01;56.19;97293.97;4970320;28;20124;-74
2022/08/13 13:09:22;;;;;;;9.80;4.70;;;;;;;35.02;57.01;97296.31;4969379;28;20062;-74
2022/08/13 13:12:36;;;;;;;9.68;4.75;;;;;;;34.85;56.58;97300.06;4964148;28;20062;-70
2022/08/13 13:15:25;;;;;;;10.07;4.13;;;;;;;34.92;57.41;97300.00;4964947;28;20050;-72
2022/08/13 13:18:33;;;;;;;;;;;;;;;35.18;54.11;97290.25;4968430;28;20141;-71
2022/08/13 13:21:35;;;;;;;6.53;4.63;;;;;;;35.03;58.61;97308.28;4967591;28;19945;-71
2022/08/13 13:24:25;;;;;;;6.80;4.38;;;;;;;34.79;53.31;97310.84;4967968;28;20059;-72
2022/08/13 13:27:27;;;;;;;7.28;5.40;;;;;;;34.90;58.70;97308.78;4966444;28;20046;-71
2022/08/13 13:30:27;;;;;;;6.60;5.00;;;;;;;34.95;58.69;97304.78;4969294;28;20054;-72
2022/08/13 13:33:11;;;;;;;8.43;5.32;;;;;;;34.73;57.75;97309.72;4969491;28;20043;-72
2022/08/13 13:36:05;;;;;;;6.22;4.82;;;;;;;34.63;58.89;97316.91;4971930;28;20430;-72
2022/08/13 13:38:59;;;;;;;6.90;4.35;;;;;;;34.64;58.90;97318.50;4967276;28;20042;-70
2022/08/13 13:42:02;;;;;;;11.10;4.95;;;;;;;34.59;58.76;97318.16;4968553;28;20129;-70
2022/08/13 13:44:44;;;;;;;7.38;4.93;;;;;;;34.57;56.87;97324.13;4968343;28;20061;-71
2022/08/13 13:47:32;;;;;;;8.38;4.40;;;;;;;34.62;58.42;97331.25;4968134;28;20125;-69
2022/08/13 13:50:17;;;;;;;6.28;5.28;;;;;;;34.41;59.11;97332.97;4966759;28;20046;-70
2022/08/13 13:53:13;;;;;;;6.82;5.35;;;;;;;34.44;59.60;97337.72;4969111;28;20660;-72
2022/08/13 13:56:20;;;;;;;11.25;4.95;;;;;;;34.44;59.29;97332.16;4965965;28;20137;-72
2022/08/13 13:59:02;;;;;;;11.93;4.53;;;;;;;34.56;58.94;97339.25;4969611;28;20117;-73